Time;durP1;ratioP1;P1;durP2;ratioP2;P2;SDS_P1;SDS_P2;PMS_P1;PMS_P2;Temp;Humidity;BMP_temperature;BMP_pressure;BME280_temperature;BME280_humidity;BME280_pressure;Samples;Min_cycle;Max_cycle;Signal;HPM_P1;HPM_P2
2022/10/18 00:00:39;;;;;;;;;;;;;;;;;;4971108;28;20052;-63
2022/10/18 00:03:06;;;;;;;5.38;2.70;;;;;;;;;;4959688;28;19926;-63
2022/10/18 00:05:33;;;;;;;5.00;2.83;;;;;;;;;;4970462;28;20046;-64
2022/10/18 00:07:59;;;;;;;6.43;3.15;;;;;;;;;;4964544;28;20057;-63
2022/10/18 00:10:27;;;;;;;11.52;5.32;;;;;;;;;;4969947;28;20042;-64
2022/10/18 00:12:54;;;;;;;6.22;3.17;;;;;;;;;;4965393;28;20054;-64
2022/10/18 00:15:21;;;;;;;9.40;3.30;;;;;;;;;;4968206;28;20118;-64
2022/10/18 00:17:47;;;;;;;5.72;2.70;;;;;;;;;;4962248;28;20050;-63
2022/10/18 00:20:14;;;;;;;5.10;2.50;;;;;;;;;;4969850;28;20054;-64
2022/10/18 00:22:41;;;;;;;7.75;4.07;;;;;;;;;;4966251;28;20054;-64
2022/10/18 00:25:08;;;;;;;4.78;2.60;;;;;;;;;;4969871;28;20046;-64
2022/10/18 00:27:37;;;;;;;11.23;4.00;;;;;;;;;;4967877;28;20057;-64
2022/10/18 00:30:03;;;;;;;8.55;3.17;;;;;;;;;;4986382;28;20050;-64
2022/10/18 00:32:30;;;;;;;5.20;2.58;;;;;;;;;;4980804;28;20042;-64
2022/10/18 00:34:56;;;;;;;6.63;2.95;;;;;;;;;;4986340;28;20074;-64
2022/10/18 00:37:23;;;;;;;7.78;3.50;;;;;;;;;;4981071;28;20053;-64
2022/10/18 00:39:50;;;;;;;7.93;3.58;;;;;;;;;;4986676;28;20105;-64
2022/10/18 00:42:17;;;;;;;8.07;3.13;;;;;;;;;;4983863;28;20046;-63
2022/10/18 00:45:02;;;;;;;7.80;3.38;;;;;;;;;;4979352;28;20085;-64
2022/10/18 00:47:31;;;;;;;10.02;3.95;;;;;;;;;;4985821;28;20065;-64
2022/10/18 00:50:01;;;;;;;7.65;3.15;;;;;;;;;;4979944;28;20050;-64
2022/10/18 00:52:31;;;;;;;8.93;3.38;;;;;;;;;;4985024;28;20061;-64
2022/10/18 00:54:58;;;;;;;6.43;3.47;;;;;;;;;;4977749;28;20062;-64
2022/10/18 00:57:25;;;;;;;5.97;3.17;;;;;;;;;;4970020;28;20042;-64
2022/10/18 00:59:52;;;;;;;10.13;4.18;;;;;;;;;;4979114;28;20046;-64
2022/10/18 01:02:19;;;;;;;6.55;3.10;;;;;;;;;;4989802;28;20038;-63
2022/10/18 01:04:47;;;;;;;7.93;4.38;;;;;;;;;;4992664;28;20046;-64
2022/10/18 01:07:20;;;;;;;7.47;3.22;;;;;;;;;;5021622;28;20049;-64
2022/10/18 01:09:51;;;;;;;5.30;2.67;;;;;;;;;;4999297;28;20050;-64
2022/10/18 01:12:21;;;;;;;5.05;2.35;;;;;;;;;;5006379;28;20157;-64
2022/10/18 01:14:50;;;;;;;5.38;2.50;;;;;;;;;;5000048;28;20141;-63
2022/10/18 01:17:20;;;;;;;4.70;2.50;;;;;;;;;;4988619;28;20065;-64
2022/10/18 01:20:07;;;;;;;6.50;3.03;;;;;;;;;;4983803;28;20123;-63
2022/10/18 01:22:39;;;;;;;7.00;3.55;;;;;;;;;;4982281;28;20058;-64
2022/10/18 01:25:16;;;;;;;6.25;2.65;;;;;;;;;;4987442;28;20057;-64
2022/10/18 01:27:49;;;;;;;6.03;3.00;;;;;;;;;;4995989;28;20064;-64
2022/10/18 01:30:29;;;;;;;6.50;3.17;;;;;;;;;;4995705;28;20074;-64
2022/10/18 01:32:59;;;;;;;6.10;3.08;;;;;;;;;;4989048;28;20049;-64
2022/10/18 01:35:29;;;;;;;8.00;3.45;;;;;;;;;;5000678;28;20045;-64
2022/10/18 01:37:59;;;;;;;5.15;2.65;;;;;;;;;;4998974;28;20073;-64
2022/10/18 01:40:26;;;;;;;5.25;2.60;;;;;;;;;;4997369;28;20116;-64
2022/10/18 01:42:53;;;;;;;5.25;2.63;;;;;;;;;;4988603;28;20074;-64
2022/10/18 01:45:21;;;;;;;6.18;2.60;;;;;;;;;;4982378;28;20046;-64
2022/10/18 01:47:50;;;;;;;4.75;2.78;;;;;;;;;;4987677;28;20057;-64
2022/10/18 01:50:27;;;;;;;4.78;2.53;;;;;;;;;;4983436;28;20053;-64
2022/10/18 01:52:54;;;;;;;5.28;3.08;;;;;;;;;;4998979;28;20050;-64
2022/10/18 01:55:23;;;;;;;6.03;2.75;;;;;;;;;;5003947;28;20057;-64
2022/10/18 01:57:56;;;;;;;5.60;2.80;;;;;;;;;;4992304;28;20061;-64
2022/10/18 02:00:24;;;;;;;4.68;2.47;;;;;;;;;;4992993;28;20045;-63
2022/10/18 02:02:54;;;;;;;5.30;2.53;;;;;;;;;;4987858;28;20062;-63
2022/10/18 02:05:24;;;;;;;4.43;2.40;;;;;;;;;;4993065;28;20054;-63
2022/10/18 02:07:53;;;;;;;4.05;2.13;;;;;;;;;;4997476;28;20061;-64
2022/10/18 02:10:24;;;;;;;4.32;2.35;;;;;;;;;;5008909;28;20057;-63
2022/10/18 02:12:51;;;;;;;4.32;2.20;;;;;;;;;;4987364;28;20061;-63
2022/10/18 02:15:20;;;;;;;4.78;2.35;;;;;;;;;;4992148;28;20111;-63
2022/10/18 02:17:50;;;;;;;7.20;3.92;;;;;;;;;;4999325;28;20057;-64
2022/10/18 02:20:20;;;;;;;8.10;4.45;;;;;;;;;;5011897;28;20057;-63
2022/10/18 02:22:47;;;;;;;6.00;3.10;;;;;;;;;;5004251;28;20057;-64
2022/10/18 02:25:16;;;;;;;6.38;3.22;;;;;;;;;;5028571;28;20049;-64
2022/10/18 02:27:43;;;;;;;6.10;3.03;;;;;;;;;;4996233;28;20057;-63
2022/10/18 02:30:10;;;;;;;5.00;2.05;;;;;;;;;;4991737;28;20058;-63
2022/10/18 02:32:40;;;;;;;6.55;3.47;;;;;;;;;;4994224;28;20045;-63
2022/10/18 02:35:07;;;;;;;8.05;4.32;;;;;;;;;;5011600;28;20049;-63
2022/10/18 02:37:37;;;;;;;4.75;2.50;;;;;;;;;;5016314;28;20119;-63
2022/10/18 02:40:05;;;;;;;5.55;2.53;;;;;;;;;;4992126;28;20062;-63
2022/10/18 02:42:35;;;;;;;5.47;2.47;;;;;;;;;;4986142;28;20061;-64
2022/10/18 02:45:02;;;;;;;4.45;2.60;;;;;;;;;;4985308;28;20074;-63
2022/10/18 02:47:28;;;;;;;4.05;1.80;;;;;;;;;;4978292;28;20049;-63
2022/10/18 02:49:55;;;;;;;4.97;2.45;;;;;;;;;;5027990;28;20060;-63
2022/10/18 02:52:21;;;;;;;4.55;2.72;;;;;;;;;;5008551;28;20050;-63
2022/10/18 02:54:49;;;;;;;4.75;2.25;;;;;;;;;;5020505;28;20190;-64
2022/10/18 02:57:16;;;;;;;5.38;2.38;;;;;;;;;;5005949;28;20060;-64
2022/10/18 02:59:42;;;;;;;3.47;1.90;;;;;;;;;;4985506;28;20096;-63
2022/10/18 03:02:09;;;;;;;4.47;2.20;;;;;;;;;;4991585;28;20064;-64
2022/10/18 03:04:36;;;;;;;4.60;2.30;;;;;;;;;;4983653;28;20136;-63
2022/10/18 03:07:02;;;;;;;5.57;2.03;;;;;;;;;;5009421;28;20060;-63
2022/10/18 03:09:29;;;;;;;4.53;2.30;;;;;;;;;;4993029;28;20054;-63
2022/10/18 03:11:57;;;;;;;4.97;2.00;;;;;;;;;;4990401;28;20054;-63
2022/10/18 03:14:24;;;;;;;2.78;1.73;;;;;;;;;;4994277;28;20054;-63
2022/10/18 03:16:50;;;;;;;4.50;2.00;;;;;;;;;;5026998;28;20057;-63
2022/10/18 03:19:17;;;;;;;4.55;2.05;;;;;;;;;;5015419;28;20042;-63
2022/10/18 03:21:44;;;;;;;4.35;2.28;;;;;;;;;;4990970;28;20061;-63
2022/10/18 03:24:10;;;;;;;4.68;2.30;;;;;;;;;;5016690;28;20057;-63
2022/10/18 03:26:37;;;;;;;3.40;1.90;;;;;;;;;;4991717;28;20061;-63
2022/10/18 03:29:05;;;;;;;5.07;2.47;;;;;;;;;;5002218;28;20045;-63
2022/10/18 03:31:32;;;;;;;3.63;1.95;;;;;;;;;;5009928;28;20108;-63
2022/10/18 03:33:59;;;;;;;4.72;2.00;;;;;;;;;;5009936;28;20049;-63
2022/10/18 03:36:25;;;;;;;3.33;2.13;;;;;;;;;;5005004;28;20045;-63
2022/10/18 03:38:52;;;;;;;4.07;1.95;;;;;;;;;;4995124;28;20050;-63
2022/10/18 03:41:19;;;;;;;3.75;1.95;;;;;;;;;;5000809;28;20054;-63
2022/10/18 03:43:46;;;;;;;3.50;1.95;;;;;;;;;;4987811;28;20118;-63
2022/10/18 03:46:14;;;;;;;3.30;1.90;;;;;;;;;;4986195;28;20052;-63
2022/10/18 03:48:40;;;;;;;3.35;1.90;;;;;;;;;;4990598;28;20107;-63
2022/10/18 03:51:07;;;;;;;3.90;2.10;;;;;;;;;;4986059;28;20053;-63
2022/10/18 03:53:35;;;;;;;3.28;1.80;;;;;;;;;;5002234;28;20080;-63
2022/10/18 03:56:01;;;;;;;3.35;2.00;;;;;;;;;;5003606;28;20053;-63
2022/10/18 03:58:28;;;;;;;3.85;1.83;;;;;;;;;;5015125;28;20073;-63
2022/10/18 04:00:55;;;;;;;3.47;1.60;;;;;;;;;;4991003;28;20089;-63
2022/10/18 04:03:23;;;;;;;3.13;1.80;;;;;;;;;;5000290;28;20139;-63
2022/10/18 04:05:50;;;;;;;3.38;1.95;;;;;;;;;;4986985;28;20095;-63
2022/10/18 04:08:17;;;;;;;2.92;1.75;;;;;;;;;;5025707;28;20053;-63
2022/10/18 04:10:43;;;;;;;2.70;1.73;;;;;;;;;;4998320;28;20053;-63
2022/10/18 04:13:13;;;;;;;3.30;1.90;;;;;;;;;;4990159;28;20068;-63
2022/10/18 04:15:40;;;;;;;3.45;1.95;;;;;;;;;;4990814;28;20045;-63
2022/10/18 04:18:06;;;;;;;3.55;1.88;;;;;;;;;;5002582;28;20114;-63
2022/10/18 04:20:34;;;;;;;3.45;1.90;;;;;;;;;;5009705;28;20061;-63
2022/10/18 04:23:01;;;;;;;2.85;1.63;;;;;;;;;;5003511;28;20049;-63
2022/10/18 04:25:28;;;;;;;2.83;1.80;;;;;;;;;;5009387;28;20045;-63
2022/10/18 04:27:54;;;;;;;3.38;1.80;;;;;;;;;;4994781;28;20140;-63
2022/10/18 04:30:21;;;;;;;3.05;1.77;;;;;;;;;;5009196;28;20053;-63
2022/10/18 04:32:47;;;;;;;4.07;2.05;;;;;;;;;;5003534;28;20049;-63
2022/10/18 04:35:14;;;;;;;3.30;1.80;;;;;;;;;;5009500;28;20057;-63
2022/10/18 04:37:42;;;;;;;3.28;1.65;;;;;;;;;;4995156;28;20069;-63
2022/10/18 04:40:09;;;;;;;3.70;1.93;;;;;;;;;;4989814;28;20058;-63
2022/10/18 04:42:35;;;;;;;3.38;2.08;;;;;;;;;;4983034;28;20309;-63
2022/10/18 04:45:02;;;;;;;4.28;2.00;;;;;;;;;;4989780;28;20065;-63
2022/10/18 04:47:30;;;;;;;4.15;1.88;;;;;;;;;;4987575;28;20052;-63
2022/10/18 04:49:56;;;;;;;4.88;2.00;;;;;;;;;;4970019;28;20060;-63
2022/10/18 04:52:23;;;;;;;2.88;1.85;;;;;;;;;;4975752;28;20092;-63
2022/10/18 04:54:51;;;;;;;3.38;2.00;;;;;;;;;;4971616;28;20047;-63
2022/10/18 04:57:17;;;;;;;3.35;1.95;;;;;;;;;;4969533;28;20069;-63
2022/10/18 04:59:44;;;;;;;4.60;2.30;;;;;;;;;;4958079;28;20061;-63
2022/10/18 05:02:10;;;;;;;2.95;1.92;;;;;;;;;;4960658;28;20149;-63
2022/10/18 05:04:37;;;;;;;4.00;2.10;;;;;;;;;;4959865;28;20058;-63
2022/10/18 05:07:04;;;;;;;3.50;2.00;;;;;;;;;;4963428;28;20046;-64
2022/10/18 05:09:31;;;;;;;3.75;1.92;;;;;;;;;;4959170;28;20062;-63
2022/10/18 05:11:59;;;;;;;3.42;2.00;;;;;;;;;;4966994;28;20081;-64
2022/10/18 05:14:25;;;;;;;3.38;1.83;;;;;;;;;;4960613;28;20054;-63
2022/10/18 05:16:52;;;;;;;3.75;2.05;;;;;;;;;;4964492;28;20173;-64
2022/10/18 05:19:19;;;;;;;3.22;1.67;;;;;;;;;;4959125;28;20057;-63
2022/10/18 05:21:45;;;;;;;3.88;1.85;;;;;;;;;;4965663;28;20086;-64
2022/10/18 05:24:12;;;;;;;3.22;2.00;;;;;;;;;;4962163;28;20054;-63
2022/10/18 05:26:38;;;;;;;3.45;1.90;;;;;;;;;;4965453;28;20054;-64
2022/10/18 05:29:06;;;;;;;3.17;1.85;;;;;;;;;;4959049;28;20119;-64
2022/10/18 05:31:33;;;;;;;3.80;2.20;;;;;;;;;;4962644;28;20065;-63
2022/10/18 05:34:00;;;;;;;5.15;2.20;;;;;;;;;;4962805;28;20054;-64
2022/10/18 05:36:27;;;;;;;3.33;1.83;;;;;;;;;;4948579;28;20054;-64
2022/10/18 05:38:54;;;;;;;3.60;1.80;;;;;;;;;;4968248;28;20069;-64
2022/10/18 05:41:21;;;;;;;4.07;1.90;;;;;;;;;;4963726;28;20061;-64
2022/10/18 05:43:47;;;;;;;3.80;2.10;;;;;;;;;;4973615;28;20054;-63
2022/10/18 05:46:15;;;;;;;4.07;2.20;;;;;;;;;;4966813;28;20046;-63
2022/10/18 05:48:44;;;;;;;3.95;1.83;;;;;;;;;;4972580;28;20054;-63
2022/10/18 05:51:10;;;;;;;3.55;1.95;;;;;;;;;;4967982;28;20050;-63
2022/10/18 05:53:37;;;;;;;4.22;2.08;;;;;;;;;;4970484;28;20055;-63
2022/10/18 05:56:05;;;;;;;7.75;2.13;;;;;;;;;;4972033;28;20054;-63
2022/10/18 05:58:31;;;;;;;4.68;2.28;;;;;;;;;;4984676;28;20054;-63
2022/10/18 06:00:59;;;;;;;5.07;2.35;;;;;;;;;;4973923;28;20051;-63
2022/10/18 06:03:29;;;;;;;3.50;2.03;;;;;;;;;;4969152;28;20158;-63
2022/10/18 06:05:59;;;;;;;2.92;1.83;;;;;;;;;;4980356;28;20050;-65
2022/10/18 06:08:25;;;;;;;3.10;1.80;;;;;;;;;;4968213;28;20057;-64
2022/10/18 06:10:52;;;;;;;4.05;1.92;;;;;;;;;;4964009;28;20054;-64
2022/10/18 06:13:18;;;;;;;3.90;2.00;;;;;;;;;;4984664;28;20089;-64
2022/10/18 06:15:45;;;;;;;3.65;2.10;;;;;;;;;;4963486;28;20057;-63
2022/10/18 06:18:11;;;;;;;3.22;1.90;;;;;;;;;;4966890;28;20141;-63
2022/10/18 06:20:39;;;;;;;3.38;2.00;;;;;;;;;;4964418;28;20056;-63
2022/10/18 06:23:06;;;;;;;4.30;2.10;;;;;;;;;;4967860;28;20104;-64
2022/10/18 06:25:32;;;;;;;3.45;2.00;;;;;;;;;;4984926;28;20075;-62
2022/10/18 06:27:59;;;;;;;3.38;1.88;;;;;;;;;;4972128;28;20065;-64
2022/10/18 06:30:25;;;;;;;4.25;2.20;;;;;;;;;;4968952;28;20057;-63
2022/10/18 06:32:52;;;;;;;3.83;2.05;;;;;;;;;;4975031;28;20108;-63
2022/10/18 06:35:18;;;;;;;3.92;2.03;;;;;;;;;;4971550;28;20109;-63
2022/10/18 06:37:46;;;;;;;3.67;2.08;;;;;;;;;;4971832;28;20062;-64
2022/10/18 06:40:13;;;;;;;5.90;2.33;;;;;;;;;;4984808;28;20176;-64
2022/10/18 06:42:39;;;;;;;4.35;2.17;;;;;;;;;;4974604;28;20046;-65
2022/10/18 06:45:07;;;;;;;4.07;2.10;;;;;;;;;;4970208;28;20137;-65
2022/10/18 06:47:34;;;;;;;6.20;2.15;;;;;;;;;;4958712;28;20140;-65
2022/10/18 06:50:00;;;;;;;5.45;2.90;;;;;;;;;;4990212;28;20082;-64
2022/10/18 06:52:27;;;;;;;5.70;2.97;;;;;;;;;;4969282;28;20046;-64
2022/10/18 06:54:55;;;;;;;5.55;2.50;;;;;;;;;;4995151;28;20057;-64
2022/10/18 06:57:21;;;;;;;4.28;2.25;;;;;;;;;;4986195;28;20058;-65
2022/10/18 06:59:48;;;;;;;4.20;2.00;;;;;;;;;;5007720;28;20081;-63
2022/10/18 07:02:16;;;;;;;4.95;2.40;;;;;;;;;;5002603;28;20052;-64
2022/10/18 07:04:42;;;;;;;4.00;2.30;;;;;;;;;;4997512;28;20116;-64
2022/10/18 07:07:10;;;;;;;4.20;2.13;;;;;;;;;;5007515;28;20045;-64
2022/10/18 07:09:36;;;;;;;5.20;2.35;;;;;;;;;;5002421;28;20159;-65
2022/10/18 07:12:04;;;;;;;3.90;2.13;;;;;;;;;;5010351;28;20046;-64
2022/10/18 07:14:31;;;;;;;4.45;2.30;;;;;;;;;;4990637;28;20060;-65
2022/10/18 07:16:58;;;;;;;3.63;1.98;;;;;;;;;;5006736;28;20134;-64
2022/10/18 07:19:25;;;;;;;7.57;3.30;;;;;;;;;;5007848;28;20100;-64
2022/10/18 07:21:53;;;;;;;5.93;3.10;;;;;;;;;;4991662;28;20045;-64
2022/10/18 07:24:19;;;;;;;4.77;2.23;;;;;;;;;;4982451;28;20069;-63
2022/10/18 07:26:46;;;;;;;4.03;2.15;;;;;;;;;;4990930;28;20292;-64
2022/10/18 07:29:14;;;;;;;5.00;2.30;;;;;;;;;;4983876;28;20140;-64
2022/10/18 07:31:41;;;;;;;3.78;1.95;;;;;;;;;;4991509;28;20058;-65
2022/10/18 07:34:08;;;;;;;4.13;1.95;;;;;;;;;;4985529;28;20062;-65
2022/10/18 07:36:36;;;;;;;;;;;;;;;;;;4991087;28;20135;-63
2022/10/18 07:39:03;;;;;;;7.45;3.33;;;;;;;;;;5001261;28;19929;-64
2022/10/18 07:41:32;;;;;;;4.22;2.42;;;;;;;;;;4991536;28;20054;-64
2022/10/18 07:43:58;;;;;;;5.70;2.88;;;;;;;;;;4983029;28;20066;-63
2022/10/18 07:46:26;;;;;;;8.60;4.00;;;;;;;;;;5005697;28;20058;-64
2022/10/18 07:48:53;;;;;;;5.63;2.65;;;;;;;;;;4990195;28;20064;-63
2022/10/18 07:51:20;;;;;;;13.30;3.58;;;;;;;;;;4985331;28;20058;-63
2022/10/18 07:53:48;;;;;;;12.63;4.05;;;;;;;;;;4981659;28;20050;-64
2022/10/18 07:56:15;;;;;;;8.65;2.50;;;;;;;;;;4968140;28;20143;-64
2022/10/18 07:58:43;;;;;;;4.83;2.30;;;;;;;;;;4971414;28;20050;-63
2022/10/18 08:01:10;;;;;;;5.20;2.55;;;;;;;;;;4976187;28;20305;-64
2022/10/18 08:03:38;;;;;;;9.43;3.13;;;;;;;;;;4987488;28;20112;-63
2022/10/18 08:06:07;;;;;;;7.00;2.83;;;;;;;;;;4973657;28;20050;-65
2022/10/18 08:08:34;;;;;;;5.30;2.45;;;;;;;;;;4970916;28;20078;-63
2022/10/18 08:11:02;;;;;;;7.00;2.15;;;;;;;;;;4972054;28;20054;-64
2022/10/18 08:13:29;;;;;;;8.02;3.10;;;;;;;;;;4971605;28;20062;-64
2022/10/18 08:15:59;;;;;;;4.72;2.17;;;;;;;;;;4974342;28;20069;-64
2022/10/18 08:18:26;;;;;;;5.65;2.20;;;;;;;;;;4971024;28;20114;-63
2022/10/18 08:20:54;;;;;;;5.72;2.40;;;;;;;;;;4965006;28;20069;-63
2022/10/18 08:23:20;;;;;;;5.82;2.53;;;;;;;;;;4970791;28;20050;-65
2022/10/18 08:25:47;;;;;;;4.05;2.10;;;;;;;;;;4965160;28;20064;-63
2022/10/18 08:28:16;;;;;;;5.05;2.15;;;;;;;;;;4971144;28;20062;-67
2022/10/18 08:30:43;;;;;;;5.07;2.33;;;;;;;;;;4960329;28;20058;-63
2022/10/18 08:33:10;;;;;;;6.35;3.20;;;;;;;;;;4979993;28;20085;-63
2022/10/18 08:35:36;;;;;;;5.90;2.30;;;;;;;;;;4959884;28;20062;-63
2022/10/18 08:38:04;;;;;;;7.90;3.42;;;;;;;;;;4946419;28;20113;-63
2022/10/18 08:40:32;;;;;;;4.82;2.40;;;;;;;;;;4980736;28;20058;-63
2022/10/18 08:43:01;;;;;;;5.50;2.72;;;;;;;;;;4965397;28;20081;-63
2022/10/18 08:45:28;;;;;;;4.65;2.25;;;;;;;;;;4983871;28;20062;-63
2022/10/18 08:47:57;;;;;;;7.07;3.33;;;;;;;;;;4974760;28;20054;-64
2022/10/18 08:50:26;;;;;;;4.90;2.45;;;;;;;;;;4986092;28;20062;-64
2022/10/18 08:52:57;;;;;;;5.63;2.40;;;;;;;;;;4980400;28;20126;-63
2022/10/18 08:55:28;;;;;;;5.07;2.58;;;;;;;;;;4978778;28;20058;-63
2022/10/18 08:57:56;;;;;;;8.88;4.25;;;;;;;;;;4970709;28;20050;-64
2022/10/18 09:00:24;;;;;;;6.53;3.20;;;;;;;;;;4973821;28;20064;-64
2022/10/18 09:02:59;;;;;;;7.32;3.60;;;;;;;;;;4964124;28;20054;-63
2022/10/18 09:05:30;;;;;;;5.28;2.47;;;;;;;;;;4969877;28;20050;-63
2022/10/18 09:08:12;;;;;;;5.32;2.30;;;;;;;;;;4963808;28;20082;-63
2022/10/18 09:10:44;;;;;;;7.00;3.22;;;;;;;;;;4964220;28;20065;-63
2022/10/18 09:13:20;;;;;;;8.63;3.08;;;;;;;;;;4953141;28;20157;-63
2022/10/18 09:15:49;;;;;;;4.70;2.40;;;;;;;;;;4969655;28;20206;-63
2022/10/18 09:18:25;;;;;;;6.03;2.72;;;;;;;;;;4962031;28;20058;-64
2022/10/18 09:20:56;;;;;;;10.35;4.10;;;;;;;;;;4965530;28;20121;-63
2022/10/18 09:23:29;;;;;;;8.45;3.78;;;;;;;;;;4947657;28;20051;-66
2022/10/18 09:26:01;;;;;;;9.90;3.35;;;;;;;;;;4962600;28;20057;-65
2022/10/18 09:28:36;;;;;;;6.32;2.63;;;;;;;;;;4964402;28;20054;-65
2022/10/18 09:31:05;;;;;;;6.20;2.75;;;;;;;;;;4968955;28;20140;-66
2022/10/18 09:33:38;;;;;;;12.63;3.65;;;;;;;;;;4963503;28;20050;-66
2022/10/18 09:36:05;;;;;;;11.07;4.47;;;;;;;;;;4969281;28;20065;-66
2022/10/18 09:38:34;;;;;;;4.32;2.30;;;;;;;;;;4963867;28;20067;-66
2022/10/18 09:41:05;;;;;;;12.63;3.58;;;;;;;;;;4968914;28;20053;-66
2022/10/18 09:43:38;;;;;;;12.98;4.68;;;;;;;;;;4964337;28;20074;-66
2022/10/18 09:46:06;;;;;;;10.65;4.43;;;;;;;;;;4963094;28;20050;-66
2022/10/18 09:48:37;;;;;;;5.23;2.60;;;;;;;;;;4969200;28;20100;-65
2022/10/18 09:51:09;;;;;;;10.38;4.00;;;;;;;;;;4979303;28;20110;-66
2022/10/18 09:53:42;;;;;;;9.90;4.13;;;;;;;;;;4988596;28;20058;-66
2022/10/18 09:56:12;;;;;;;11.23;3.65;;;;;;;;;;4988702;28;20057;-66
2022/10/18 09:58:43;;;;;;;10.65;2.92;;;;;;;;;;4988449;28;20050;-66
2022/10/18 10:01:11;;;;;;;6.60;2.83;;;;;;;;;;4994952;28;20124;-66
2022/10/18 10:03:37;;;;;;;7.85;3.28;;;;;;;;;;4988640;28;20060;-66
2022/10/18 10:06:15;;;;;;;16.48;3.60;;;;;;;;;;4982464;28;20100;-66
2022/10/18 10:08:42;;;;;;;6.77;2.67;;;;;;;;;;4988967;28;20141;-65
2022/10/18 10:11:26;;;;;;;4.43;2.22;;;;;;;;;;4982426;28;20128;-65
2022/10/18 10:13:56;;;;;;;9.23;2.28;;;;;;;;;;4988454;28;20065;-66
2022/10/18 10:16:23;;;;;;;8.48;2.58;;;;;;;;;;4992579;28;20042;-65
2022/10/18 10:18:53;;;;;;;10.02;2.30;;;;;;;;;;5008491;28;20108;-64
2022/10/18 10:21:20;;;;;;;8.35;2.25;;;;;;;;;;4993317;28;20140;-65
2022/10/18 10:23:51;;;;;;;7.35;2.25;;;;;;;;;;4992778;28;20137;-64
2022/10/18 10:26:23;;;;;;;9.57;2.72;;;;;;;;;;4986440;28;20054;-64
2022/10/18 10:28:50;;;;;;;17.73;5.10;;;;;;;;;;4992779;28;20053;-65
2022/10/18 10:31:17;;;;;;;13.40;4.28;;;;;;;;;;4990569;28;20065;-65
2022/10/18 10:33:46;;;;;;;15.13;2.80;;;;;;;;;;4997109;28;20123;-65
2022/10/18 10:36:17;;;;;;;6.63;2.20;;;;;;;;;;5001505;28;20053;-65
2022/10/18 10:38:43;;;;;;;10.25;2.40;;;;;;;;;;4992125;28;20100;-65
2022/10/18 10:41:18;;;;;;;7.10;1.95;;;;;;;;;;4983530;28;20152;-65
2022/10/18 10:43:46;;;;;;;9.93;2.47;;;;;;;;;;4989485;28;20141;-64
2022/10/18 10:46:15;;;;;;;5.53;1.92;;;;;;;;;;4986332;28;20062;-64
2022/10/18 10:48:45;;;;;;;4.43;2.08;;;;;;;;;;4991839;28;20173;-63
2022/10/18 10:51:13;;;;;;;10.80;2.30;;;;;;;;;;4993392;28;20061;-63
2022/10/18 10:53:42;;;;;;;5.82;1.88;;;;;;;;;;4982864;28;20051;-63
2022/10/18 10:56:21;;;;;;;9.15;2.70;;;;;;;;;;4991857;28;20049;-64
2022/10/18 10:58:49;;;;;;;10.75;2.40;;;;;;;;;;4989982;28;20049;-63
2022/10/18 11:01:21;;;;;;;4.38;1.95;;;;;;;;;;5014271;28;20099;-64
2022/10/18 11:03:49;;;;;;;7.10;1.80;;;;;;;;;;5017211;28;20054;-63
2022/10/18 11:06:31;;;;;;;4.03;1.58;;;;;;;;;;5007379;28;20058;-64
2022/10/18 11:08:59;;;;;;;5.97;2.15;;;;;;;;;;4984656;28;20108;-63
2022/10/18 11:11:29;;;;;;;11.90;1.73;;;;;;;;;;4998401;28;20049;-63
2022/10/18 11:13:59;;;;;;;7.40;1.52;;;;;;;;;;4989120;28;20162;-63
2022/10/18 11:16:29;;;;;;;3.28;1.38;;;;;;;;;;4998715;28;20062;-64
2022/10/18 11:18:57;;;;;;;4.40;1.40;;;;;;;;;;5000720;28;20053;-63
2022/10/18 11:21:25;;;;;;;9.32;1.83;;;;;;;;;;5007124;28;20064;-63
2022/10/18 11:23:52;;;;;;;12.48;1.88;;;;;;;;;;5000659;28;20070;-63
2022/10/18 11:26:30;;;;;;;6.95;1.15;;;;;;;;;;5006092;28;20058;-63
2022/10/18 11:28:57;;;;;;;;;;;;;;;;;;4993154;28;20053;-63
2022/10/18 11:31:29;;;;;;;8.02;1.02;;;;;;;;;;4990813;28;19925;-63
2022/10/18 11:34:02;;;;;;;2.40;1.00;;;;;;;;;;4984908;28;20085;-63
2022/10/18 11:36:33;;;;;;;8.15;1.38;;;;;;;;;;4990233;28;20081;-63
2022/10/18 11:39:03;;;;;;;5.45;1.05;;;;;;;;;;4986124;28;20145;-63
2022/10/18 11:41:31;;;;;;;7.10;1.40;;;;;;;;;;4997688;28;20060;-63
2022/10/18 11:43:59;;;;;;;11.60;3.00;;;;;;;;;;4983435;28;20132;-62
2022/10/18 11:46:32;;;;;;;6.55;1.60;;;;;;;;;;5003371;28;20113;-63
2022/10/18 11:49:02;;;;;;;5.97;1.30;;;;;;;;;;4966161;28;20046;-63
2022/10/18 11:51:34;;;;;;;8.27;0.90;;;;;;;;;;4997365;28;20065;-63
2022/10/18 11:54:08;;;;;;;6.38;1.10;;;;;;;;;;4976186;28;20061;-62
2022/10/18 11:56:39;;;;;;;4.88;0.93;;;;;;;;;;4970806;28;20132;-62
2022/10/18 11:59:17;;;;;;;7.65;1.10;;;;;;;;;;4965669;28;20058;-62
2022/10/18 12:01:54;;;;;;;3.45;1.08;;;;;;;;;;4987186;28;20078;-63
2022/10/18 12:04:23;;;;;;;4.70;0.82;;;;;;;;;;4980482;28;20054;-63
2022/10/18 12:06:51;;;;;;;4.95;1.10;;;;;;;;;;4986690;28;20065;-63
2022/10/18 12:09:23;;;;;;;6.70;0.90;;;;;;;;;;4981444;28;20096;-62
2022/10/18 12:11:52;;;;;;;10.50;1.15;;;;;;;;;;4970307;28;20108;-62
2022/10/18 12:14:19;;;;;;;;;;;;;;;;;;4971299;28;20054;-62
2022/10/18 12:16:47;;;;;;;9.65;0.90;;;;;;;;;;4975230;28;19929;-62
2022/10/18 12:19:17;;;;;;;3.75;0.90;;;;;;;;;;4986825;28;20101;-63
2022/10/18 12:21:43;;;;;;;4.60;1.10;;;;;;;;;;4967631;28;20112;-63
2022/10/18 12:24:14;;;;;;;3.75;0.77;;;;;;;;;;4970482;28;20058;-62
2022/10/18 12:26:41;;;;;;;5.22;1.10;;;;;;;;;;4970270;28;20096;-62
2022/10/18 12:29:16;;;;;;;7.95;1.00;;;;;;;;;;4970084;28;20101;-62
2022/10/18 12:31:49;;;;;;;6.35;1.10;;;;;;;;;;4990719;28;20054;-65
2022/10/18 12:34:24;;;;;;;5.10;1.23;;;;;;;;;;4986613;28;20161;-62
2022/10/18 12:37:00;;;;;;;5.05;1.05;;;;;;;;;;4977556;28;20062;-62
2022/10/18 12:39:28;;;;;;;5.22;0.82;;;;;;;;;;4969098;28;20054;-63
2022/10/18 12:41:56;;;;;;;4.80;0.80;;;;;;;;;;4959938;28;20141;-62
2022/10/18 12:44:28;;;;;;;5.97;1.03;;;;;;;;;;4969751;28;20082;-63
2022/10/18 12:46:57;;;;;;;10.52;1.10;;;;;;;;;;4965094;28;20050;-62
2022/10/18 12:49:27;;;;;;;6.07;0.95;;;;;;;;;;4970022;28;20158;-61
2022/10/18 12:51:57;;;;;;;3.72;0.80;;;;;;;;;;4964703;28;20060;-62
2022/10/18 12:54:25;;;;;;;6.30;0.75;;;;;;;;;;4982043;28;20076;-62
2022/10/18 12:56:51;;;;;;;5.25;0.90;;;;;;;;;;4985367;28;20143;-62
2022/10/18 12:59:48;;;;;;;4.53;0.73;;;;;;;;;;4989468;28;20049;-62
2022/10/18 13:02:24;;;;;;;8.20;0.85;;;;;;;;;;4984133;28;20057;-62
2022/10/18 13:04:51;;;;;;;2.58;1.05;;;;;;;;;;4987456;28;20064;-63
2022/10/18 13:07:19;;;;;;;4.30;0.95;;;;;;;;;;4987838;28;20104;-62
2022/10/18 13:10:00;;;;;;;4.47;0.70;;;;;;;;;;5005311;28;20054;-61
2022/10/18 13:12:49;;;;;;;4.40;1.00;;;;;;;;;;4997717;28;20061;-62
2022/10/18 13:15:23;;;;;;;3.63;0.80;;;;;;;;;;5005955;28;20080;-62
2022/10/18 13:17:53;;;;;;;3.42;0.70;;;;;;;;;;4992093;28;20046;-62
2022/10/18 13:20:24;;;;;;;2.60;0.70;;;;;;;;;;5005369;28;20053;-62
2022/10/18 13:22:57;;;;;;;2.95;0.80;;;;;;;;;;4987186;28;20054;-63
2022/10/18 13:25:26;;;;;;;2.60;0.60;;;;;;;;;;5005042;28;20077;-62
2022/10/18 13:27:54;;;;;;;3.90;0.73;;;;;;;;;;4985052;28;20049;-62
2022/10/18 13:30:27;;;;;;;6.10;1.08;;;;;;;;;;4991803;28;20069;-62
2022/10/18 13:32:59;;;;;;;3.40;0.82;;;;;;;;;;4990255;28;20129;-62
2022/10/18 13:35:59;;;;;;;4.75;0.73;;;;;;;;;;5005494;28;20058;-62
2022/10/18 13:38:37;;;;;;;6.10;1.10;;;;;;;;;;4943831;28;20134;-62
2022/10/18 13:41:06;;;;;;;3.95;1.23;;;;;;;;;;4947456;28;20058;-61
2022/10/18 13:43:51;;;;;;;7.20;1.05;;;;;;;;;;4968130;28;20107;-62
2022/10/18 13:46:17;;;;;;;2.13;0.90;;;;;;;;;;4988567;28;20072;-62
2022/10/18 13:48:49;;;;;;;3.90;0.90;;;;;;;;;;4983795;28;20058;-62
2022/10/18 13:51:29;;;;;;;3.45;0.77;;;;;;;;;;4988203;28;20046;-62
2022/10/18 13:53:59;;;;;;;4.57;0.95;;;;;;;;;;4977322;28;20128;-62
2022/10/18 13:56:40;;;;;;;4.30;1.00;;;;;;;;;;4968717;28;20054;-62
2022/10/18 13:59:24;;;;;;;3.03;0.55;;;;;;;;;;4979252;28;20050;-63
2022/10/18 14:02:01;;;;;;;3.20;0.75;;;;;;;;;;4984049;28;20058;-62
2022/10/18 14:04:42;;;;;;;3.13;0.73;;;;;;;;;;4979064;28;20109;-63
2022/10/18 14:07:10;;;;;;;2.83;0.73;;;;;;;;;;4985149;28;20058;-63
2022/10/18 14:09:43;;;;;;;4.95;0.77;;;;;;;;;;4976793;28;20051;-63
2022/10/18 14:12:14;;;;;;;12.57;1.23;;;;;;;;;;4972707;28;20058;-63
2022/10/18 14:14:42;;;;;;;3.58;1.00;;;;;;;;;;4977497;28;20054;-62
2022/10/18 14:17:16;;;;;;;2.03;0.70;;;;;;;;;;4969357;28;20055;-63
2022/10/18 14:19:44;;;;;;;4.47;0.73;;;;;;;;;;4962433;28;20054;-63
2022/10/18 14:22:10;;;;;;;;;;;;;;;;;;4985092;28;20053;-63
2022/10/18 14:24:38;;;;;;;7.13;0.73;;;;;;;;;;4979730;28;19979;-63
2022/10/18 14:27:18;;;;;;;1.42;0.60;;;;;;;;;;4982480;28;20042;-63
2022/10/18 14:29:45;;;;;;;2.58;0.57;;;;;;;;;;4960620;28;20065;-63
2022/10/18 14:32:22;;;;;;;2.22;0.73;;;;;;;;;;4980623;28;20054;-63
2022/10/18 14:34:50;;;;;;;3.13;0.80;;;;;;;;;;4965766;28;20143;-63
2022/10/18 14:37:21;;;;;;;2.08;0.52;;;;;;;;;;4954263;28;20077;-62
2022/10/18 14:39:48;;;;;;;2.72;0.60;;;;;;;;;;4969026;28;20070;-63
2022/10/18 14:42:20;;;;;;;1.38;0.70;;;;;;;;;;4973129;28;20060;-63
2022/10/18 14:44:48;;;;;;;4.18;0.65;;;;;;;;;;4967030;28;20050;-62
2022/10/18 14:47:17;;;;;;;4.78;0.55;;;;;;;;;;4977039;28;20140;-62
2022/10/18 14:49:44;;;;;;;2.30;0.82;;;;;;;;;;4965127;28;20089;-62
2022/10/18 14:52:13;;;;;;;2.97;0.60;;;;;;;;;;4959174;28;20177;-62
2022/10/18 14:54:40;;;;;;;1.90;0.70;;;;;;;;;;4971586;28;20051;-62